Terminal Aerodrome Forecast
Issued by NWS

Home | Current Version | Previous Version | Text Only | Print | Product List | Glossary On
Versions: 1 2 3 4 5 6 7 8 9 10 11 12 13 14 15 16 17 18
990
FTUS42 KMLB 191402 AAC
TAFISM
TAF AMD
KISM 191402Z 1914/2012 31004KT P6SM FEW002 OVC040
     FM191500 33005KT P6SM SCT010 BKN025
     FM191800 32008KT P6SM SCT030
     FM200200 05004KT P6SM SKC=

USA.gov is the U.S. government's official web portal to all federal, state and local government web resources and services.